Time;durP1;ratioP1;P1;durP2;ratioP2;P2;SDS_P1;SDS_P2;PMS_P1;PMS_P2;Temp;Humidity;BMP_temperature;BMP_pressure;BME280_temperature;BME280_humidity;BME280_pressure;Samples;Min_cycle;Max_cycle;Signal;HPM_P1;HPM_P2
2023/04/14 00:02:23;;;;;;;10.07;2.15;;;;;;;-143.48;74.75;118439.88;5037553;28;20111;-68
2023/04/14 00:04:52;;;;;;;16.73;2.53;;;;;;;-143.48;75.14;118439.88;5055605;28;20059;-68
2023/04/14 00:07:18;;;;;;;6.05;2.17;;;;;;;-143.48;75.41;118439.88;5038131;28;20028;-67
2023/04/14 00:09:43;;;;;;;10.15;2.33;;;;;;;-143.48;75.45;118439.88;5037751;28;20048;-67
2023/04/14 00:12:09;;;;;;;9.65;2.60;;;;;;;-143.48;75.46;118439.88;5055470;28;20461;-67
2023/04/14 00:14:34;;;;;;;15.38;2.28;;;;;;;-143.48;75.11;118439.88;5056064;28;20469;-66
2023/04/14 00:17:00;;;;;;;11.30;1.98;;;;;;;-143.48;75.29;118439.88;5057951;28;20027;-68
2023/04/14 00:19:25;;;;;;;12.88;2.50;;;;;;;-143.48;75.67;118439.88;5062076;28;20028;-68
2023/04/14 00:21:51;;;;;;;15.65;2.67;;;;;;;-143.48;76.00;118439.88;5044538;28;20032;-68
2023/04/14 00:24:16;;;;;;;16.63;2.70;;;;;;;-143.48;76.24;118439.88;5062607;28;20517;-67
2023/04/14 00:26:42;;;;;;;18.58;2.63;;;;;;;-143.48;76.35;118439.88;5044489;28;20453;-67
2023/04/14 00:29:07;;;;;;;8.05;2.20;;;;;;;-143.48;77.01;118439.88;5061838;28;20488;-67
2023/04/14 00:31:32;;;;;;;16.77;2.75;;;;;;;-143.48;77.01;118439.88;5062247;28;20033;-67
2023/04/14 00:33:58;;;;;;;13.50;2.42;;;;;;;-143.48;77.17;118439.88;5062028;28;20025;-68
2023/04/14 00:36:23;;;;;;;16.52;2.65;;;;;;;-143.48;76.93;118439.88;5061979;28;20533;-66
2023/04/14 00:38:48;;;;;;;15.75;2.63;;;;;;;-143.48;77.38;118439.88;5061545;28;20163;-67
2023/04/14 00:41:14;;;;;;;8.77;2.85;;;;;;;-143.48;78.33;118439.88;5043638;28;20158;-67
2023/04/14 00:43:39;;;;;;;14.70;2.65;;;;;;;-143.48;78.17;118439.88;5061945;28;20083;-67
2023/04/14 00:46:05;;;;;;;11.93;2.40;;;;;;;-143.48;77.32;118439.88;5061579;28;20028;-68
2023/04/14 00:48:31;;;;;;;9.43;2.55;;;;;;;-143.48;78.17;118439.88;5060440;28;20017;-69
2023/04/14 00:50:56;;;;;;;11.32;2.28;;;;;;;-143.48;77.72;118439.88;5061769;28;20059;-68
2023/04/14 00:53:22;;;;;;;13.68;2.83;;;;;;;-143.48;78.08;118439.88;5062286;28;20025;-68
2023/04/14 00:55:48;;;;;;;13.25;2.25;;;;;;;-143.48;78.06;118439.88;5061688;28;20024;-68
2023/04/14 00:58:15;;;;;;;14.13;2.78;;;;;;;-143.48;78.96;118439.88;5061189;28;20032;-68
2023/04/14 01:00:40;;;;;;;17.20;3.22;;;;;;;-143.48;79.76;118439.88;5043615;28;20510;-67
2023/04/14 01:03:06;;;;;;;11.40;2.88;;;;;;;-143.48;79.03;118439.88;5061296;28;20021;-67
2023/04/14 01:05:32;;;;;;;11.65;2.55;;;;;;;-143.48;79.00;118439.88;5060291;28;20029;-68
2023/04/14 01:07:58;;;;;;;11.15;2.80;;;;;;;-143.48;79.39;118439.88;5060986;28;20036;-67
2023/04/14 01:10:34;;;;;;;11.68;3.10;;;;;;;-143.48;79.46;118439.88;5061134;28;20024;-66
2023/04/14 01:13:32;;;;;;;14.35;2.83;;;;;;;-143.48;79.46;118439.88;5060031;28;20345;-68
2023/04/14 01:16:08;;;;;;;10.07;2.83;;;;;;;-143.48;78.95;118439.88;5052691;28;20040;-67
2023/04/14 01:18:52;;;;;;;11.35;3.00;;;;;;;-143.48;78.66;118439.88;5059961;28;20036;-67
2023/04/14 01:21:24;;;;;;;12.43;3.28;;;;;;;-143.48;78.75;118439.88;5059884;28;20021;-68
2023/04/14 01:24:24;;;;;;;16.88;3.25;;;;;;;-143.48;79.29;118439.88;5059850;28;20103;-67
2023/04/14 01:27:01;;;;;;;16.67;3.00;;;;;;;-143.48;78.98;118439.88;5059948;28;20024;-68
2023/04/14 01:29:33;;;;;;;10.77;3.28;;;;;;;-143.48;79.39;118439.88;5039161;28;20032;-67
2023/04/14 01:32:13;;;;;;;7.30;2.75;;;;;;;-143.48;79.35;118439.88;5038795;28;20037;-67
2023/04/14 01:34:49;;;;;;;14.38;3.08;;;;;;;-143.48;79.85;118439.88;5056655;28;20028;-68
2023/04/14 01:37:20;;;;;;;14.05;3.40;;;;;;;-143.48;80.22;118439.88;5056387;28;20029;-67
2023/04/14 01:39:51;;;;;;;9.48;3.50;;;;;;;-143.48;80.45;118439.88;5056261;28;20021;-67
2023/04/14 01:42:20;;;;;;;9.32;3.17;;;;;;;-143.48;80.37;118439.88;5038069;28;20053;-68
2023/04/14 01:44:51;;;;;;;10.65;2.92;;;;;;;-143.48;80.83;118439.88;5056211;28;20025;-67
2023/04/14 01:47:19;;;;;;;9.52;3.35;;;;;;;-143.48;80.92;118439.88;5056295;28;20036;-67
2023/04/14 01:49:47;;;;;;;12.52;3.33;;;;;;;-143.48;81.38;118439.88;5056113;28;20017;-67
2023/04/14 01:52:16;;;;;;;14.13;3.63;;;;;;;-143.48;81.16;118439.88;5057584;28;20035;-66
2023/04/14 01:54:42;;;;;;;8.25;3.40;;;;;;;-143.48;81.63;118439.88;5056330;28;20082;-68
2023/04/14 01:57:11;;;;;;;13.63;3.25;;;;;;;-143.48;81.55;118439.88;5056352;28;20103;-67
2023/04/14 01:59:38;;;;;;;11.65;3.60;;;;;;;-143.48;81.97;118439.88;5055956;28;20019;-67
2023/04/14 02:02:06;;;;;;;13.13;3.33;;;;;;;-143.48;81.52;118439.88;5055853;28;20032;-68
2023/04/14 02:04:34;;;;;;;11.10;3.60;;;;;;;-143.48;82.62;118439.88;5055486;28;20075;-67
2023/04/14 02:07:01;;;;;;;10.55;3.42;;;;;;;-143.48;82.09;118439.88;5055238;28;20036;-67
2023/04/14 02:09:28;;;;;;;12.55;4.10;;;;;;;-143.48;82.55;118439.88;5055235;28;20028;-69
2023/04/14 02:11:54;;;;;;;10.73;3.90;;;;;;;-143.48;82.86;118439.88;5055096;28;20028;-67
2023/04/14 02:14:22;;;;;;;10.10;3.67;;;;;;;-143.48;82.67;118439.88;5055352;28;20031;-67
2023/04/14 02:16:49;;;;;;;11.10;3.72;;;;;;;-143.48;82.72;118439.88;5055176;28;20036;-67
2023/04/14 02:19:18;;;;;;;12.45;3.95;;;;;;;-143.48;82.42;118439.88;5055116;28;20154;-67
2023/04/14 02:21:44;;;;;;;10.27;4.07;;;;;;;-143.48;82.67;118439.88;5055087;28;20049;-67
2023/04/14 02:24:10;;;;;;;10.55;3.90;;;;;;;-143.48;82.18;118439.88;5055067;28;20035;-66
2023/04/14 02:26:41;;;;;;;10.18;3.80;;;;;;;-143.48;82.54;118439.88;5055065;28;20025;-67
2023/04/14 02:29:11;;;;;;;8.10;4.00;;;;;;;-143.48;82.72;118439.88;5055406;28;20027;-67
2023/04/14 02:31:44;;;;;;;13.43;4.05;;;;;;;-143.48;82.10;118439.88;5037085;28;20037;-67
2023/04/14 02:34:12;;;;;;;11.35;3.95;;;;;;;-143.48;83.32;118439.88;5055206;28;20021;-67
2023/04/14 02:36:50;;;;;;;14.00;4.18;;;;;;;-143.48;83.56;118439.88;5036937;28;20104;-66
2023/04/14 02:39:21;;;;;;;14.93;4.00;;;;;;;-143.48;83.17;118439.88;5054732;28;20067;-66
2023/04/14 02:41:55;;;;;;;14.40;4.47;;;;;;;-143.48;83.86;118439.88;5054500;28;20107;-68
2023/04/14 02:44:27;;;;;;;15.50;4.82;;;;;;;-143.48;84.06;118439.88;5054888;28;20028;-67
2023/04/14 02:47:08;;;;;;;12.93;4.35;;;;;;;-143.48;84.27;118439.88;5054918;28;20078;-67
2023/04/14 02:49:36;;;;;;;12.30;4.28;;;;;;;-143.48;84.43;118439.88;5036752;28;20025;-67
2023/04/14 02:52:05;;;;;;;10.75;3.95;;;;;;;-143.48;84.64;118439.88;5055041;28;20041;-68
2023/04/14 02:54:34;;;;;;;14.48;4.63;;;;;;;-143.48;84.68;118439.88;5055732;28;20081;-68
2023/04/14 02:57:01;;;;;;;13.82;4.72;;;;;;;-143.48;85.80;118439.88;5057242;28;20538;-68
2023/04/14 02:59:28;;;;;;;13.02;4.60;;;;;;;-143.48;85.62;118439.88;5056521;28;20017;-67
2023/04/14 03:01:55;;;;;;;16.88;4.53;;;;;;;-143.48;85.28;118439.88;5054917;28;20119;-67
2023/04/14 03:04:22;;;;;;;9.35;4.70;;;;;;;-143.48;85.52;118439.88;5056621;28;20075;-67
2023/04/14 03:06:48;;;;;;;18.13;5.57;;;;;;;-143.48;85.99;118439.88;5056604;28;20480;-66
2023/04/14 03:09:13;;;;;;;12.52;4.70;;;;;;;-143.48;86.04;118439.88;5054509;28;20028;-66
2023/04/14 03:11:40;;;;;;;9.85;4.53;;;;;;;-143.48;86.17;118439.88;5054560;28;20457;-67
2023/04/14 03:14:06;;;;;;;11.85;4.57;;;;;;;-143.48;85.72;118439.88;5055856;28;20036;-67
2023/04/14 03:16:32;;;;;;;17.63;5.65;;;;;;;-143.48;86.09;118439.88;5055851;28;20028;-67
2023/04/14 03:18:58;;;;;;;18.90;5.00;;;;;;;-143.48;86.36;118439.88;5056272;28;20091;-67
2023/04/14 03:21:25;;;;;;;10.60;5.22;;;;;;;-143.48;85.95;118439.88;5056661;28;20025;-67
2023/04/14 03:23:52;;;;;;;10.23;5.20;;;;;;;-143.48;85.49;118439.88;5053914;28;20151;-67
2023/04/14 03:26:19;;;;;;;15.10;4.93;;;;;;;-143.48;85.58;118439.88;5053941;28;20449;-67
2023/04/14 03:28:47;;;;;;;14.30;4.90;;;;;;;-143.48;85.75;118439.88;5053692;28;20087;-67
2023/04/14 03:31:15;;;;;;;11.23;4.85;;;;;;;-143.48;85.25;118439.88;5053949;28;20044;-67
2023/04/14 03:33:43;;;;;;;13.88;5.55;;;;;;;-143.48;85.63;118439.88;5053777;28;20502;-68
2023/04/14 03:36:10;;;;;;;17.80;5.05;;;;;;;-143.48;85.84;118439.88;5053809;28;20017;-67
2023/04/14 03:38:36;;;;;;;14.32;5.53;;;;;;;-143.48;86.20;118439.88;5053682;28;20044;-67
2023/04/14 03:41:05;;;;;;;12.07;4.97;;;;;;;-143.48;85.03;118439.88;5053703;28;20100;-67
2023/04/14 03:43:32;;;;;;;12.07;5.45;;;;;;;-143.48;85.50;118439.88;5035634;28;20045;-67
2023/04/14 03:45:58;;;;;;;14.98;5.68;;;;;;;-143.48;86.17;118439.88;5053766;28;20037;-66
2023/04/14 03:48:25;;;;;;;12.23;5.05;;;;;;;-143.48;86.46;118439.88;5035474;28;20027;-67
2023/04/14 03:50:55;;;;;;;12.95;5.80;;;;;;;-143.48;86.47;118439.88;5053363;28;20108;-67
2023/04/14 03:53:20;;;;;;;12.60;5.50;;;;;;;-143.48;86.95;118439.88;5053051;28;20028;-68
2023/04/14 03:55:50;;;;;;;13.25;5.70;;;;;;;-143.48;87.60;118439.88;5053379;28;20392;-67
2023/04/14 03:58:17;;;;;;;16.55;6.15;;;;;;;-143.48;86.35;118439.88;5053390;28;20103;-67
2023/04/14 04:00:43;;;;;;;11.48;5.93;;;;;;;-143.48;87.26;118439.88;5053053;28;20036;-68
2023/04/14 04:03:09;;;;;;;15.15;6.10;;;;;;;-143.48;87.14;118439.88;5053123;28;20021;-67
2023/04/14 04:05:38;;;;;;;15.45;5.97;;;;;;;-143.48;87.26;118439.88;5053799;28;20555;-67
2023/04/14 04:08:04;;;;;;;14.50;6.13;;;;;;;-143.48;86.52;118439.88;5055581;28;20083;-67
2023/04/14 04:10:33;;;;;;;16.23;6.47;;;;;;;-143.48;86.04;118439.88;5056662;28;20488;-67
2023/04/14 04:13:00;;;;;;;15.57;5.97;;;;;;;-143.48;85.82;118439.88;5057610;28;20036;-67
2023/04/14 04:15:27;;;;;;;14.77;6.13;;;;;;;-143.48;86.04;118439.88;5057453;28;20020;-67
2023/04/14 04:17:56;;;;;;;13.85;6.30;;;;;;;-143.48;86.96;118439.88;5057915;28;20025;-68
2023/04/14 04:20:25;;;;;;;18.35;6.20;;;;;;;-143.48;87.01;118439.88;5053382;28;20040;-67
2023/04/14 04:22:54;;;;;;;11.23;5.60;;;;;;;-143.48;86.12;118439.88;5035349;28;20025;-67
2023/04/14 04:25:19;;;;;;;18.50;6.43;;;;;;;-143.48;85.41;118439.88;5035354;28;20021;-68
2023/04/14 04:27:45;;;;;;;17.45;6.25;;;;;;;-143.48;86.35;118439.88;5053147;28;20024;-69
2023/04/14 04:30:12;;;;;;;11.57;5.88;;;;;;;-143.48;86.19;118439.88;5053323;28;20052;-66
2023/04/14 04:32:38;;;;;;;14.98;5.82;;;;;;;-143.48;86.11;118439.88;5053929;28;20078;-67
2023/04/14 04:35:07;;;;;;;16.65;5.97;;;;;;;-143.48;85.48;118439.88;5053575;28;20029;-66
2023/04/14 04:37:33;;;;;;;17.08;6.40;;;;;;;-143.48;85.53;118439.88;5053168;28;20033;-67
2023/04/14 04:39:59;;;;;;;18.30;6.47;;;;;;;-143.48;85.34;118439.88;5035479;28;20032;-68
2023/04/14 04:42:24;;;;;;;15.65;5.95;;;;;;;-143.48;85.79;118439.88;5052854;28;20408;-67
2023/04/14 04:44:50;;;;;;;14.02;6.30;;;;;;;-143.48;86.05;118439.88;5053004;28;20480;-68
2023/04/14 04:47:15;;;;;;;17.83;6.68;;;;;;;-143.48;86.19;118439.88;5052836;28;20103;-67
2023/04/14 04:49:41;;;;;;;15.18;5.90;;;;;;;-143.48;85.77;118439.88;5057684;28;20024;-67
2023/04/14 04:52:06;;;;;;;18.25;6.50;;;;;;;-143.48;86.17;118439.88;5034877;28;20472;-68
2023/04/14 04:54:32;;;;;;;15.85;6.15;;;;;;;-143.48;86.08;118439.88;5035845;28;20036;-67
2023/04/14 04:56:57;;;;;;;17.13;5.85;;;;;;;-143.48;85.79;118439.88;5053197;28;20086;-67
2023/04/14 04:59:23;;;;;;;17.98;6.85;;;;;;;-143.48;85.41;118439.88;5062203;28;20020;-67
2023/04/14 05:01:48;;;;;;;17.70;6.20;;;;;;;-143.48;85.00;118439.88;5054618;28;20025;-68
2023/04/14 05:04:14;;;;;;;21.55;6.57;;;;;;;-143.48;85.71;118439.88;5056054;28;20047;-68
2023/04/14 05:06:39;;;;;;;22.35;6.43;;;;;;;-143.48;85.34;118439.88;5056792;28;20108;-67
2023/04/14 05:09:05;;;;;;;12.82;6.13;;;;;;;-143.48;85.13;118439.88;5059308;28;20021;-67
2023/04/14 05:11:34;;;;;;;19.05;6.85;;;;;;;-143.48;85.10;118439.88;5056486;28;20036;-67
2023/04/14 05:14:03;;;;;;;13.25;5.63;;;;;;;-143.48;84.66;118439.88;5037701;28;20121;-67
2023/04/14 05:16:28;;;;;;;15.02;6.18;;;;;;;-143.48;84.64;118439.88;5038328;28;20472;-67
2023/04/14 05:18:57;;;;;;;19.13;6.00;;;;;;;-143.48;84.43;118439.88;5038200;28;20024;-67
2023/04/14 05:21:25;;;;;;;17.92;6.32;;;;;;;-143.48;84.10;118439.88;5056491;28;20396;-68
2023/04/14 05:23:51;;;;;;;12.50;5.80;;;;;;;-143.48;83.90;118439.88;5038787;28;20040;-68
2023/04/14 05:26:16;;;;;;;16.48;6.13;;;;;;;-143.48;84.24;118439.88;5056175;28;20025;-67
2023/04/14 05:28:42;;;;;;;16.92;5.68;;;;;;;-143.48;84.43;118439.88;5038639;28;20032;-67
2023/04/14 05:31:07;;;;;;;13.10;5.78;;;;;;;-143.48;84.05;118439.88;5056039;28;20107;-68
2023/04/14 05:33:34;;;;;;;19.83;6.05;;;;;;;-143.48;83.84;118439.88;5056130;28;20043;-67
2023/04/14 05:35:59;;;;;;;17.65;5.85;;;;;;;-143.48;82.94;118439.88;5056061;28;20021;-67
2023/04/14 05:38:25;;;;;;;16.02;5.70;;;;;;;-143.48;83.63;118439.88;5056255;28;20518;-67
2023/04/14 05:40:51;;;;;;;17.05;5.63;;;;;;;-143.48;83.27;118439.88;5055895;28;20017;-67
2023/04/14 05:43:17;;;;;;;13.90;5.57;;;;;;;-143.48;83.27;118439.88;5055706;28;20143;-67
2023/04/14 05:45:42;;;;;;;14.18;5.45;;;;;;;-143.48;83.92;118439.88;5055588;28;20385;-67
2023/04/14 05:48:07;;;;;;;17.80;6.10;;;;;;;-143.48;84.32;118439.88;5037881;28;20021;-66
2023/04/14 05:50:37;;;;;;;12.25;6.00;;;;;;;-143.48;84.00;118439.88;5055559;28;20017;-67
2023/04/14 05:53:02;;;;;;;16.80;5.30;;;;;;;-143.48;84.08;118439.88;5055687;28;20115;-66
2023/04/14 05:55:27;;;;;;;14.45;5.85;;;;;;;-143.48;83.24;118439.88;5055499;28;20474;-66
2023/04/14 05:57:53;;;;;;;16.88;5.82;;;;;;;-143.48;83.45;118439.88;5055674;28;20392;-67
2023/04/14 06:00:18;;;;;;;12.25;5.38;;;;;;;-143.48;82.92;118439.88;5055601;28;20104;-67
2023/04/14 06:02:44;;;;;;;12.77;5.30;;;;;;;-143.48;83.67;118439.88;5055785;28;20507;-68
2023/04/14 06:05:11;;;;;;;16.92;5.47;;;;;;;-143.48;82.83;118439.88;5055406;28;20377;-67
2023/04/14 06:07:37;;;;;;;13.85;5.70;;;;;;;-143.48;79.49;118439.88;5037620;28;20021;-67
2023/04/14 06:10:02;;;;;;;13.43;5.20;;;;;;;-143.48;66.42;118439.88;5055485;28;20492;-67
2023/04/14 06:12:27;;;;;;;24.02;5.47;;;;;;;-143.48;64.80;118439.88;5055845;28;20461;-67
2023/04/14 06:14:54;;;;;;;15.52;5.10;;;;;;;-143.48;71.27;118439.88;5036474;28;20021;-67
2023/04/14 06:17:19;;;;;;;17.75;5.20;;;;;;;-143.48;75.54;118439.88;5055261;28;20024;-66
2023/04/14 06:19:47;;;;;;;13.60;5.20;;;;;;;-143.48;76.30;118439.88;5037507;28;20417;-68
2023/04/14 06:22:15;;;;;;;12.48;4.97;;;;;;;-143.48;78.17;118439.88;5020801;28;20033;-67
2023/04/14 06:24:41;;;;;;;15.38;5.72;;;;;;;-143.48;78.50;118439.88;5037281;28;20028;-68
2023/04/14 06:27:06;;;;;;;13.55;5.25;;;;;;;-143.48;77.76;118439.88;5055252;28;20047;-67
2023/04/14 06:29:31;;;;;;;12.98;5.22;;;;;;;-143.48;77.72;118439.88;5054527;28;20078;-68
2023/04/14 06:31:57;;;;;;;19.27;5.53;;;;;;;-143.48;69.36;118439.88;5054260;28;20033;-68
2023/04/14 06:34:23;;;;;;;17.80;5.22;;;;;;;-143.48;60.93;118439.88;5053894;28;20037;-67
2023/04/14 06:36:48;;;;;;;14.80;4.88;;;;;;;-143.48;54.63;118439.88;5054114;28;20025;-69
2023/04/14 06:39:14;;;;;;;11.80;4.70;;;;;;;-143.48;51.99;118439.88;5054027;28;20013;-67
2023/04/14 06:41:39;;;;;;;14.48;4.40;;;;;;;-143.48;51.78;118439.88;5054026;28;20453;-67
2023/04/14 06:44:05;;;;;;;15.60;4.50;;;;;;;-143.48;46.96;118439.88;5054430;28;20083;-67
2023/04/14 06:46:30;;;;;;;11.20;4.30;;;;;;;-143.48;48.77;118439.88;5037020;28;20384;-69
2023/04/14 06:48:55;;;;;;;10.38;4.00;;;;;;;-143.48;46.08;118439.88;5055150;28;20389;-71
2023/04/14 06:51:20;;;;;;;12.98;4.13;;;;;;;-143.48;47.69;118439.88;5060211;28;20108;-70
2023/04/14 06:53:46;;;;;;;10.13;4.07;;;;;;;-143.48;49.63;118439.88;5057470;28;20043;-71
2023/04/14 06:56:12;;;;;;;10.52;4.30;;;;;;;-143.48;45.35;118439.88;5055647;28;20051;-71
2023/04/14 06:58:38;;;;;;;12.93;3.88;;;;;;;-143.48;44.58;118439.88;5065311;28;20025;-70
2023/04/14 07:01:04;;;;;;;14.13;3.67;;;;;;;-143.48;45.48;118439.88;5064335;28;20466;-71
2023/04/14 07:03:30;;;;;;;11.88;4.05;;;;;;;-143.48;44.61;118439.88;5056721;28;20028;-72
2023/04/14 07:06:10;;;;;;;12.85;4.40;;;;;;;-143.48;43.27;118439.88;5060613;28;20021;-70
2023/04/14 07:08:36;;;;;;;7.68;3.70;;;;;;;-143.48;42.04;118439.88;5055986;28;20032;-70
2023/04/14 07:11:07;;;;;;;9.18;3.83;;;;;;;-143.48;42.34;118439.88;5058454;28;20033;-70
2023/04/14 07:13:33;;;;;;;12.10;4.05;;;;;;;-143.48;42.62;118439.88;5057558;28;20031;-71
2023/04/14 07:16:01;;;;;;;8.98;3.58;;;;;;;-143.48;43.15;118439.88;5055947;28;20025;-71
2023/04/14 07:18:26;;;;;;;10.85;3.75;;;;;;;-143.48;41.24;118439.88;5055123;28;20070;-72
2023/04/14 07:20:53;;;;;;;11.55;3.80;;;;;;;-143.48;41.58;118439.88;5054962;28;20029;-71
2023/04/14 07:23:18;;;;;;;8.88;3.40;;;;;;;-143.48;40.54;118439.88;5052861;28;20025;-71
2023/04/14 07:25:49;;;;;;;9.25;3.47;;;;;;;-143.48;41.83;118439.88;5053092;28;20021;-70
2023/04/14 07:28:14;;;;;;;8.07;3.58;;;;;;;-143.48;40.08;118439.88;5035449;28;20024;-72
2023/04/14 07:30:40;;;;;;;9.55;3.42;;;;;;;-143.48;40.38;118439.88;5038982;28;20025;-71
2023/04/14 07:33:07;;;;;;;12.70;3.40;;;;;;;-143.48;41.06;118439.88;5057659;28;20029;-71
2023/04/14 07:35:32;;;;;;;9.57;3.08;;;;;;;-143.48;40.10;118439.88;5054317;28;20064;-70
2023/04/14 07:37:58;;;;;;;7.88;3.03;;;;;;;-143.48;40.04;118439.88;5053649;28;20035;-70
2023/04/14 07:40:23;;;;;;;8.50;3.07;;;;;;;-143.48;39.04;118439.88;5057198;28;20017;-71
2023/04/14 07:42:48;;;;;;;8.13;2.90;;;;;;;-143.48;41.22;118439.88;5043328;28;20319;-70
2023/04/14 07:45:14;;;;;;;7.40;2.87;;;;;;;-143.48;39.05;118439.88;5037441;28;20025;-71
2023/04/14 07:47:40;;;;;;;11.02;3.03;;;;;;;-143.48;39.20;118439.88;5055566;28;20291;-70
2023/04/14 07:50:06;;;;;;;10.60;3.38;;;;;;;-143.48;41.46;118439.88;5038686;28;20029;-70
2023/04/14 07:52:31;;;;;;;8.70;2.88;;;;;;;-143.48;42.04;118439.88;5056379;28;20032;-71
2023/04/14 07:54:56;;;;;;;9.50;3.00;;;;;;;-143.48;39.91;118439.88;5058029;28;20447;-70
2023/04/14 07:57:22;;;;;;;8.38;2.80;;;;;;;-143.48;39.40;118439.88;5058529;28;20310;-70
2023/04/14 07:59:47;;;;;;;9.93;2.63;;;;;;;-143.48;40.31;118439.88;5060453;28;20078;-71
2023/04/14 08:02:12;;;;;;;6.05;2.40;;;;;;;-143.48;39.28;118439.88;5056788;28;20040;-71
2023/04/14 08:04:37;;;;;;;10.75;2.33;;;;;;;-143.48;40.90;118439.88;5057112;28;20384;-70
2023/04/14 08:07:03;;;;;;;7.32;2.33;;;;;;;-143.48;40.84;118439.88;5056494;28;20104;-71
2023/04/14 08:09:28;;;;;;;8.40;2.30;;;;;;;-143.48;41.03;118439.88;5061884;28;20029;-69
2023/04/14 08:11:55;;;;;;;7.70;2.30;;;;;;;-143.48;41.70;118439.88;5057947;28;20052;-70
2023/04/14 08:14:21;;;;;;;6.95;1.90;;;;;;;-143.48;40.39;118439.88;5036254;28;20031;-70
2023/04/14 08:16:46;;;;;;;6.13;1.90;;;;;;;-143.48;39.04;118439.88;5054940;28;20072;-70
2023/04/14 08:19:11;;;;;;;5.30;1.90;;;;;;;-143.48;40.49;118439.88;5053991;28;20541;-71
2023/04/14 08:21:37;;;;;;;6.03;1.90;;;;;;;-143.48;39.25;118439.88;5054541;28;20464;-70
2023/04/14 08:24:02;;;;;;;6.13;1.75;;;;;;;-143.48;40.82;118439.88;5055049;28;20021;-70
2023/04/14 08:26:27;;;;;;;3.50;1.30;;;;;;;-143.48;40.56;118439.88;5038023;28;20032;-70
2023/04/14 08:28:53;;;;;;;7.82;1.40;;;;;;;-143.48;41.40;118439.88;5055084;28;20036;-70
2023/04/14 08:31:23;;;;;;;6.80;1.95;;;;;;;-143.48;40.38;118439.88;5054859;28;20583;-70
2023/04/14 08:33:48;;;;;;;5.70;1.58;;;;;;;-143.48;39.11;118439.88;5036917;28;20468;-70
2023/04/14 08:36:13;;;;;;;7.03;1.50;;;;;;;-143.48;39.25;118439.88;5037262;28;20032;-69
2023/04/14 08:38:39;;;;;;;5.15;1.40;;;;;;;-143.48;40.89;118439.88;5050031;28;20024;-70
2023/04/14 08:41:07;;;;;;;4.80;1.45;;;;;;;-143.48;42.16;118439.88;5059016;28;20060;-71
2023/04/14 08:43:34;;;;;;;6.13;1.75;;;;;;;-143.48;43.30;118439.88;5058282;28;20039;-68
2023/04/14 08:46:00;;;;;;;7.03;1.52;;;;;;;-143.48;41.36;118439.88;5044359;28;20108;-70
2023/04/14 08:48:29;;;;;;;5.45;1.25;;;;;;;-143.48;42.00;118439.88;5059279;28;20083;-69
2023/04/14 08:51:06;;;;;;;4.72;1.52;;;;;;;-143.48;42.95;118439.88;5059264;28;20017;-70
2023/04/14 08:53:32;;;;;;;9.65;1.55;;;;;;;-143.48;43.37;118439.88;5040773;28;20473;-70
2023/04/14 08:56:01;;;;;;;9.32;1.90;;;;;;;-143.48;42.13;118439.88;5039202;28;20078;-71
2023/04/14 08:58:27;;;;;;;5.30;1.33;;;;;;;-143.48;42.21;118439.88;5039553;28;20021;-72
2023/04/14 09:00:54;;;;;;;5.88;1.52;;;;;;;-143.48;41.96;118439.88;5060246;28;20028;-73
2023/04/14 09:03:20;;;;;;;6.63;1.50;;;;;;;-143.48;41.53;118439.88;5039959;28;20503;-71
2023/04/14 09:05:46;;;;;;;4.95;1.42;;;;;;;-143.48;42.23;118439.88;5057234;28;20016;-71
2023/04/14 09:08:12;;;;;;;8.23;1.60;;;;;;;-143.48;41.22;118439.88;5038765;28;20053;-70
2023/04/14 09:10:37;;;;;;;7.32;1.30;;;;;;;-143.48;42.17;118439.88;5056995;28;20064;-71
2023/04/14 09:13:03;;;;;;;5.90;1.90;;;;;;;-143.48;40.36;118439.88;5059798;28;20480;-70
2023/04/14 09:15:30;;;;;;;5.60;1.60;;;;;;;-143.48;42.53;118439.88;5057756;28;20384;-71
2023/04/14 09:17:56;;;;;;;6.93;1.70;;;;;;;-143.48;42.42;118439.88;5058204;28;20017;-70
2023/04/14 09:20:21;;;;;;;5.95;1.60;;;;;;;-143.48;41.61;118439.88;5058452;28;20035;-70
2023/04/14 09:22:46;;;;;;;10.65;1.70;;;;;;;-143.48;41.92;118439.88;5056104;28;20025;-70
2023/04/14 09:25:14;;;;;;;6.75;1.60;;;;;;;-143.48;40.75;118439.88;5057576;28;20080;-70
2023/04/14 09:27:39;;;;;;;8.13;1.42;;;;;;;-143.48;40.98;118439.88;5071541;28;20017;-69
2023/04/14 09:30:08;;;;;;;7.85;1.58;;;;;;;-143.48;40.80;118439.88;5073540;28;20065;-71
2023/04/14 09:32:33;;;;;;;8.85;1.80;;;;;;;-143.48;41.00;118439.88;5052535;28;20431;-70
2023/04/14 09:34:59;;;;;;;9.90;1.90;;;;;;;-143.48;40.98;118439.88;5072316;28;20025;-70
2023/04/14 09:37:24;;;;;;;5.15;1.50;;;;;;;-143.48;40.47;118439.88;5053447;28;20059;-70
2023/04/14 09:39:51;;;;;;;6.00;1.60;;;;;;;-143.48;40.49;118439.88;5058213;28;20013;-69
2023/04/14 09:42:18;;;;;;;5.55;1.42;;;;;;;-143.48;39.41;118439.88;5062346;28;20057;-70
2023/04/14 09:44:53;;;;;;;6.88;1.40;;;;;;;-143.48;40.13;118439.88;5056193;28;20036;-71
2023/04/14 09:47:20;;;;;;;4.88;1.58;;;;;;;-143.48;39.71;118439.88;5054486;28;20063;-72
2023/04/14 09:50:03;;;;;;;6.07;1.45;;;;;;;-143.48;40.30;118439.88;5055760;28;20471;-70
2023/04/14 09:52:48;;;;;;;5.47;1.70;;;;;;;-143.48;40.09;118439.88;5057047;28;20025;-70
2023/04/14 09:55:15;;;;;;;6.38;1.70;;;;;;;-143.48;39.87;118439.88;5055331;28;20044;-70
2023/04/14 09:57:42;;;;;;;6.72;1.35;;;;;;;-143.48;38.93;118439.88;5054814;28;20048;-72
2023/04/14 10:00:30;;;;;;;8.35;2.20;;;;;;;-143.48;38.61;118439.88;5035825;28;20028;-70
2023/04/14 10:02:57;;;;;;;5.63;1.75;;;;;;;-143.48;36.69;118439.88;5035640;28;20025;-71
2023/04/14 10:05:27;;;;;;;5.97;1.30;;;;;;;-143.48;37.48;118439.88;5054682;28;20028;-71
2023/04/14 10:07:53;;;;;;;8.63;1.70;;;;;;;-143.48;37.36;118439.88;5054123;28;20033;-71
2023/04/14 10:10:18;;;;;;;6.68;1.40;;;;;;;-143.48;38.64;118439.88;5053320;28;20446;-70
2023/04/14 10:12:45;;;;;;;8.55;1.58;;;;;;;-143.48;38.92;118439.88;5053687;28;20089;-71
2023/04/14 10:15:11;;;;;;;6.45;1.65;;;;;;;-143.48;38.75;118439.88;5036541;28;20037;-71
2023/04/14 10:17:41;;;;;;;4.22;1.40;;;;;;;-143.48;39.97;118439.88;5058128;28;20127;-70
2023/04/14 10:20:07;;;;;;;6.97;1.65;;;;;;;-143.48;39.61;118439.88;5054637;28;20025;-70
2023/04/14 10:22:33;;;;;;;6.55;1.67;;;;;;;-143.48;40.05;118439.88;5054655;28;20039;-70
2023/04/14 10:24:59;;;;;;;10.13;1.63;;;;;;;-143.48;40.08;118439.88;5053751;28;20425;-69
2023/04/14 10:27:30;;;;;;;5.55;1.58;;;;;;;-143.48;40.05;118439.88;5037151;28;20028;-70
2023/04/14 10:29:56;;;;;;;5.13;1.60;;;;;;;-143.48;40.84;118439.88;5055066;28;20063;-69
2023/04/14 10:32:24;;;;;;;4.57;1.70;;;;;;;-143.48;39.83;118439.88;5055090;28;20476;-69
2023/04/14 10:35:08;;;;;;;7.05;1.65;;;;;;;-143.48;39.94;118439.88;5036921;28;20025;-71
2023/04/14 10:37:34;;;;;;;6.28;1.83;;;;;;;-143.48;38.48;118439.88;5035953;28;20131;-70
2023/04/14 10:40:04;;;;;;;5.22;1.63;;;;;;;-143.48;38.08;118439.88;5053799;28;20072;-68
2023/04/14 10:42:53;;;;;;;4.47;1.40;;;;;;;-143.48;38.08;118439.88;5053798;28;20435;-71
2023/04/14 10:45:18;;;;;;;6.30;1.77;;;;;;;-143.48;36.49;118439.88;5053568;28;20079;-69
2023/04/14 10:47:44;;;;;;;4.65;1.60;;;;;;;-143.48;37.55;118439.88;5035497;28;20029;-70
2023/04/14 10:50:17;;;;;;;5.47;1.58;;;;;;;-143.48;36.89;118439.88;5053426;28;20377;-70
2023/04/14 10:52:49;;;;;;;5.22;1.83;;;;;;;-143.48;36.61;118439.88;5054405;28;20033;-68
2023/04/14 10:55:14;;;;;;;7.28;1.40;;;;;;;-143.48;36.24;118439.88;5036726;28;20074;-70
2023/04/14 10:57:42;;;;;;;4.65;1.90;;;;;;;-143.48;36.15;118439.88;5054410;28;20032;-69
2023/04/14 11:00:19;;;;;;;6.78;2.10;;;;;;;-143.48;37.17;118439.88;5054318;28;20024;-69
2023/04/14 11:03:10;;;;;;;8.70;2.00;;;;;;;-143.48;37.64;118439.88;5054981;28;20029;-71
2023/04/14 11:05:50;;;;;;;5.72;1.95;;;;;;;-143.48;36.70;118439.88;5067737;28;20017;-70
2023/04/14 11:08:26;;;;;;;9.38;2.28;;;;;;;-143.48;39.25;118439.88;5041304;28;20124;-68